createdAt,value
2023-02-07T17:24:18.963Z,102432.48
2023-02-07T17:34:24.813Z,102431.90
2023-02-07T17:44:33.075Z,102433.64
2023-02-07T17:55:38.463Z,102441.63
2023-02-07T18:07:02.631Z,102452.44
2023-02-07T18:17:06.646Z,102459.63
2023-02-07T18:27:10.625Z,102464.85
2023-02-07T18:37:17.585Z,102473.58
2023-02-07T18:47:21.524Z,102480.52
2023-02-07T18:57:25.906Z,102482.10
2023-02-07T19:07:29.750Z,102486.98
2023-02-07T19:17:33.737Z,102484.02
2023-02-07T19:27:37.469Z,102487.48
2023-02-07T19:37:41.493Z,102494.52
2023-02-07T19:47:45.183Z,102502.63
2023-02-07T19:57:49.279Z,102510.28
2023-02-07T20:07:54.152Z,102514.82
2023-02-07T20:17:59.334Z,102518.45
2023-02-07T20:28:03.527Z,102515.45
2023-02-07T20:38:10.075Z,102524.66
2023-02-07T20:48:15.628Z,102535.02
2023-02-07T20:58:19.621Z,102543.17
2023-02-07T21:08:23.685Z,102549.06
2023-02-07T21:18:28.570Z,102557.11
2023-02-07T21:28:33.403Z,102566.05
2023-02-07T21:38:39.540Z,102573.96
2023-02-07T21:48:43.218Z,102579.01
2023-02-07T21:58:48.251Z,102585.67
2023-02-07T22:08:56.583Z,102585.10
2023-02-07T22:19:02.511Z,102586.19
2023-02-07T22:29:07.501Z,102589.39
2023-02-07T22:39:13.145Z,102591.35
2023-02-07T22:49:16.972Z,102595.86
2023-02-07T22:59:20.822Z,102605.91
2023-02-07T23:09:24.505Z,102613.02
2023-02-07T23:19:28.198Z,102623.94
2023-02-07T23:29:31.858Z,102624.43
2023-02-07T23:39:35.665Z,102632.56
2023-02-07T23:49:39.406Z,102637.92
2023-02-07T23:59:43.175Z,102643.30
